Time,TemperatureF,DewpointF,PressureIn,WindDirection,WindDirectionDegrees,WindSpeedMPH,WindSpeedGustMPH,Humidity,HourlyPrecipIn,Conditions,Clouds,dailyrainin,SoftwareType,DateUTC
2013-06-03 00:02:00,43.3,40.0,29.76,ENE,62,0.0,2.0,88,0.06,,---,0.00,VWS V14.01,2013-06-03 06:02:00,
2013-06-03 00:07:00,43.2,39.9,29.76,ENE,60,0.0,2.0,88,0.07,,---,0.01,VWS V14.01,2013-06-03 06:07:00,
2013-06-03 00:13:00,43.2,40.2,29.76,ENE,59,0.0,2.0,89,0.07,,---,0.01,VWS V14.01,2013-06-03 06:13:00,
2013-06-03 00:18:00,43.1,39.8,29.80,ENE,73,0.0,1.0,88,0.07,,---,0.01,VWS V14.01,2013-06-03 06:18:00,
2013-06-03 00:23:00,43.1,39.8,29.80,West,281,0.0,6.0,88,0.07,,---,0.01,VWS V14.01,2013-06-03 06:23:00,
2013-06-03 00:28:00,42.9,39.3,29.80,West,261,0.0,4.0,87,0.06,,---,0.01,VWS V14.01,2013-06-03 06:28:00,
2013-06-03 00:33:00,42.9,39.0,29.80,ENE,78,0.0,3.0,86,0.06,,---,0.02,VWS V14.01,2013-06-03 06:33:00,
2013-06-03 00:38:00,42.9,39.3,29.80,ESE,107,3.0,3.0,87,0.04,,---,0.02,VWS V14.01,2013-06-03 06:38:00,
2013-06-03 00:43:00,42.9,39.3,29.80,NNE,19,1.0,1.0,87,0.04,,---,0.03,VWS V14.01,2013-06-03 06:43:00,
2013-06-03 00:48:00,42.8,38.9,29.81,NNW,332,0.0,4.0,86,0.05,,---,0.04,VWS V14.01,2013-06-03 06:48:00,
2013-06-03 00:53:00,42.6,39.0,29.81,NE,55,2.0,4.0,87,0.06,,---,0.06,VWS V14.01,2013-06-03 06:53:00,
2013-06-03 00:58:00,42.6,39.3,29.81,NNE,13,2.0,3.0,88,0.07,,---,0.07,VWS V14.01,2013-06-03 06:58:00,
2013-06-03 01:03:00,42.5,39.2,29.80,NNE,19,0.0,3.0,88,0.07,,---,0.07,VWS V14.01,2013-06-03 07:03:00,
2013-06-03 01:09:00,42.3,39.0,29.80,North,5,0.0,1.0,88,0.07,,---,0.08,VWS V14.01,2013-06-03 07:09:00,
2013-06-03 01:14:00,42.3,39.0,29.80,ENE,59,0.0,1.0,88,0.07,,---,0.08,VWS V14.01,2013-06-03 07:14:00,
2013-06-03 01:19:00,42.2,39.2,29.82,NE,50,0.0,1.0,89,0.07,,---,0.08,VWS V14.01,2013-06-03 07:19:00,
2013-06-03 01:24:00,42.2,39.2,29.82,NE,55,0.0,5.0,89,0.07,,---,0.08,VWS V14.01,2013-06-03 07:24:00,
2013-06-03 01:29:00,42.1,39.1,29.82,NE,41,1.0,4.0,89,0.08,,---,0.09,VWS V14.01,2013-06-03 07:29:00,
2013-06-03 01:34:00,42.1,39.1,29.81,ENE,69,0.0,2.0,89,0.07,,---,0.09,VWS V14.01,2013-06-03 07:34:00,
2013-06-03 01:40:00,42.1,39.1,29.81,NNW,336,0.0,4.0,89,0.07,,---,0.09,VWS V14.01,2013-06-03 07:40:00,
2013-06-03 01:45:00,42.1,39.1,29.81,ENE,70,0.0,3.0,89,0.06,,---,0.09,VWS V14.01,2013-06-03 07:45:00,
2013-06-03 01:50:00,41.9,38.9,29.81,ENE,59,0.0,4.0,89,0.06,,---,0.09,VWS V14.01,2013-06-03 07:50:00,
2013-06-03 01:55:00,41.9,38.9,29.81,ENE,76,0.0,4.0,89,0.04,,---,0.09,VWS V14.01,2013-06-03 07:55:00,
2013-06-03 02:00:00,41.9,38.9,29.81,NE,34,0.0,3.0,89,0.02,,---,0.09,VWS V14.01,2013-06-03 08:00:00,
2013-06-03 02:05:00,41.9,38.9,29.82,NNE,19,0.0,2.0,89,0.02,,---,0.09,VWS V14.01,2013-06-03 08:05:00,
2013-06-03 02:10:00,41.9,38.9,29.82,NNE,19,0.0,2.0,89,0.02,,---,0.09,VWS V14.01,2013-06-03 08:10:00,
2013-06-03 02:15:00,41.8,38.8,29.82,NNE,15,0.0,1.0,89,0.02,,---,0.10,VWS V14.01,2013-06-03 08:15:00,
2013-06-03 02:21:00,41.8,38.8,29.82,NNE,15,1.0,1.0,89,0.02,,---,0.10,VWS V14.01,2013-06-03 08:21:00,
2013-06-03 02:26:00,41.8,38.8,29.82,NE,53,0.0,0.0,89,0.02,,---,0.10,VWS V14.01,2013-06-03 08:26:00,
2013-06-03 02:31:00,41.8,38.8,29.81,NE,53,0.0,0.0,89,0.03,,---,0.11,VWS V14.01,2013-06-03 08:31:00,
2013-06-03 02:36:00,41.8,39.1,29.81,NE,53,0.0,0.0,90,0.02,,---,0.11,VWS V14.01,2013-06-03 08:36:00,
2013-06-03 02:41:00,41.8,39.1,29.81,NE,53,0.0,0.0,90,0.02,,---,0.11,VWS V14.01,2013-06-03 08:41:00,
2013-06-03 02:46:00,41.8,39.1,29.81,NE,53,0.0,0.0,90,0.02,,---,0.11,VWS V14.01,2013-06-03 08:46:00,
2013-06-03 02:51:00,41.6,38.9,29.81,NE,53,0.0,0.0,90,0.02,,---,0.11,VWS V14.01,2013-06-03 08:51:00,
2013-06-03 02:56:00,41.6,38.9,29.81,NE,53,0.0,0.0,90,0.02,,---,0.11,VWS V14.01,2013-06-03 08:56:00,
2013-06-03 03:01:00,41.6,38.9,29.81,NE,53,0.0,0.0,90,0.02,,---,0.11,VWS V14.01,2013-06-03 09:01:00,
2013-06-03 03:07:00,41.6,39.2,29.81,NE,53,0.0,0.0,91,0.03,,---,0.12,VWS V14.01,2013-06-03 09:07:00,
2013-06-03 03:12:00,41.6,39.2,29.81,NE,53,0.0,0.0,91,0.03,,---,0.12,VWS V14.01,2013-06-03 09:12:00,
2013-06-03 03:17:00,41.6,39.2,29.84,NE,53,0.0,0.0,91,0.02,,---,0.12,VWS V14.01,2013-06-03 09:17:00,
2013-06-03 03:23:00,41.6,39.2,29.84,NE,53,0.0,0.0,91,0.03,,---,0.13,VWS V14.01,2013-06-03 09:23:00,
2013-06-03 03:28:00,41.6,39.2,29.84,NE,53,0.0,0.0,91,0.03,,---,0.13,VWS V14.01,2013-06-03 09:28:00,
2013-06-03 03:33:00,41.6,39.2,29.84,ENE,59,0.0,2.0,91,0.02,,---,0.13,VWS V14.01,2013-06-03 09:33:00,
2013-06-03 03:38:00,41.6,39.2,29.84,ENE,65,0.0,0.0,91,0.02,,---,0.13,VWS V14.01,2013-06-03 09:38:00,
2013-06-03 03:43:00,41.6,39.2,29.84,ENE,66,0.0,0.0,91,0.02,,---,0.13,VWS V14.01,2013-06-03 09:43:00,
2013-06-03 03:48:00,41.6,39.2,29.84,ENE,64,0.0,0.0,91,0.03,,---,0.14,VWS V14.01,2013-06-03 09:48:00,
2013-06-03 03:53:00,41.6,39.2,29.84,NW,305,0.0,1.0,91,0.03,,---,0.14,VWS V14.01,2013-06-03 09:53:00,
2013-06-03 03:59:00,41.6,39.2,29.84,East,83,0.0,0.0,91,0.03,,---,0.14,VWS V14.01,2013-06-03 09:59:00,
2013-06-03 04:04:00,41.6,39.2,29.84,East,83,0.0,0.0,91,0.03,,---,0.14,VWS V14.01,2013-06-03 10:04:00,
2013-06-03 04:09:00,41.6,39.2,29.84,ESE,116,0.0,3.0,91,0.02,,---,0.14,VWS V14.01,2013-06-03 10:09:00,
2013-06-03 04:14:00,41.6,39.2,29.84,SE,135,0.0,0.0,91,0.03,,---,0.15,VWS V14.01,2013-06-03 10:14:00,
2013-06-03 04:19:00,41.6,39.2,29.85,SE,135,0.0,0.0,91,0.03,,---,0.15,VWS V14.01,2013-06-03 10:19:00,
2013-06-03 04:25:00,41.6,39.2,29.85,SE,135,0.0,0.0,91,0.03,,---,0.15,VWS V14.01,2013-06-03 10:25:00,
2013-06-03 04:30:00,41.6,39.2,29.85,SE,135,0.0,0.0,91,0.02,,---,0.15,VWS V14.01,2013-06-03 10:30:00,
2013-06-03 04:35:00,41.6,39.2,29.85,SE,135,0.0,0.0,91,0.02,,---,0.15,VWS V14.01,2013-06-03 10:35:00,
2013-06-03 04:40:00,41.6,39.2,29.85,ESE,108,0.0,0.0,91,0.03,,---,0.16,VWS V14.01,2013-06-03 10:40:00,
2013-06-03 04:45:00,41.6,39.2,29.85,ESE,113,0.0,1.0,91,0.03,,---,0.16,VWS V14.01,2013-06-03 10:45:00,
2013-06-03 04:50:00,41.6,39.2,29.85,ESE,113,0.0,0.0,91,0.02,,---,0.16,VWS V14.01,2013-06-03 10:50:00,
2013-06-03 04:55:00,41.6,39.2,29.85,ESE,113,0.0,0.0,91,0.02,,---,0.16,VWS V14.01,2013-06-03 10:55:00,
2013-06-03 05:00:00,41.6,39.2,29.85,ESE,113,0.0,0.0,91,0.02,,---,0.16,VWS V14.01,2013-06-03 11:00:00,
2013-06-03 05:05:00,41.6,39.2,29.85,ESE,113,0.0,0.0,91,0.03,,---,0.17,VWS V14.01,2013-06-03 11:05:00,
2013-06-03 05:10:00,41.8,39.4,29.85,ESE,113,0.0,0.0,91,0.03,,---,0.17,VWS V14.01,2013-06-03 11:10:00,
2013-06-03 05:16:00,41.6,39.5,29.85,ESE,113,0.0,0.0,92,0.03,,---,0.18,VWS V14.01,2013-06-03 11:16:00,
2013-06-03 05:21:00,41.6,39.5,29.85,ESE,113,0.0,0.0,92,0.03,,---,0.18,VWS V14.01,2013-06-03 11:21:00,
2013-06-03 05:26:00,41.6,39.5,29.85,ESE,113,0.0,0.0,92,0.04,,---,0.19,VWS V14.01,2013-06-03 11:26:00,
2013-06-03 05:31:00,41.6,39.5,29.85,ESE,113,0.0,0.0,92,0.04,,---,0.19,VWS V14.01,2013-06-03 11:31:00,
2013-06-03 05:36:00,41.5,39.3,29.85,ESE,113,0.0,1.0,92,0.05,,---,0.20,VWS V14.01,2013-06-03 11:36:00,
2013-06-03 05:41:00,41.5,39.1,29.85,ESE,113,0.0,0.0,91,0.04,,---,0.20,VWS V14.01,2013-06-03 11:41:00,
2013-06-03 05:47:00,41.3,38.9,29.87,ESE,113,0.0,0.0,91,0.05,,---,0.21,VWS V14.01,2013-06-03 11:47:00,
2013-06-03 05:52:00,41.3,38.9,29.87,ESE,113,0.0,0.0,91,0.05,,---,0.21,VWS V14.01,2013-06-03 11:52:00,
2013-06-03 05:57:00,41.3,38.9,29.87,ESE,115,0.0,0.0,91,0.06,,---,0.22,VWS V14.01,2013-06-03 11:57:00,
2013-06-03 06:02:00,41.2,38.8,29.87,ESE,115,0.0,0.0,91,0.06,,---,0.23,VWS V14.01,2013-06-03 12:02:00,
2013-06-03 06:07:00,41.2,39.1,29.87,ESE,115,0.0,0.0,92,0.06,,---,0.23,VWS V14.01,2013-06-03 12:07:00,
2013-06-03 06:12:00,41.2,39.1,29.87,ENE,58,0.0,0.0,92,0.07,,---,0.24,VWS V14.01,2013-06-03 12:12:00,
2013-06-03 06:18:00,41.2,39.1,29.86,ENE,58,0.0,0.0,92,0.06,,---,0.24,VWS V14.01,2013-06-03 12:18:00,
2013-06-03 06:23:00,41.3,39.2,29.86,NE,56,0.0,3.0,92,0.06,,---,0.24,VWS V14.01,2013-06-03 12:23:00,
2013-06-03 06:28:00,41.3,39.2,29.86,NE,53,0.0,3.0,92,0.05,,---,0.24,VWS V14.01,2013-06-03 12:28:00,
2013-06-03 06:33:00,41.3,39.2,29.86,NW,309,0.0,5.0,92,0.05,,---,0.24,VWS V14.01,2013-06-03 12:33:00,
2013-06-03 06:38:00,41.3,38.9,29.86,North,360,5.0,5.0,91,0.04,,---,0.24,VWS V14.01,2013-06-03 12:38:00,
2013-06-03 06:43:00,41.3,38.9,29.86,NNW,343,0.0,3.0,91,0.04,,---,0.24,VWS V14.01,2013-06-03 12:43:00,
2013-06-03 06:48:00,41.5,39.1,29.85,ENE,68,0.0,4.0,91,0.03,,---,0.24,VWS V14.01,2013-06-03 12:48:00,
2013-06-03 06:53:00,41.6,39.2,29.85,NNE,29,2.0,2.0,91,0.03,,---,0.24,VWS V14.01,2013-06-03 12:53:00,
2013-06-03 06:59:00,41.6,39.2,29.85,West,276,1.0,3.0,91,0.02,,---,0.24,VWS V14.01,2013-06-03 12:59:00,
2013-06-03 07:04:00,41.6,38.9,29.86,NNE,18,0.0,3.0,90,0.01,,---,0.24,VWS V14.01,2013-06-03 13:04:00,
2013-06-03 07:09:00,41.8,39.1,29.86,NE,34,2.0,2.0,90,0.01,,---,0.24,VWS V14.01,2013-06-03 13:09:00,
2013-06-03 07:14:00,41.8,39.1,29.86,ESE,110,0.0,3.0,90,0.00,,---,0.24,VWS V14.01,2013-06-03 13:14:00,
2013-06-03 07:19:00,41.9,39.2,29.87,North,355,0.0,0.0,90,0.00,,---,0.24,VWS V14.01,2013-06-03 13:19:00,
2013-06-03 07:24:00,42.1,39.1,29.87,NW,323,0.0,2.0,89,0.00,,---,0.24,VWS V14.01,2013-06-03 13:24:00,
2013-06-03 07:29:00,42.3,39.3,29.87,NW,323,0.0,0.0,89,0.00,,---,0.24,VWS V14.01,2013-06-03 13:29:00,
2013-06-03 07:34:00,42.5,39.8,29.87,NE,55,0.0,2.0,90,0.00,,---,0.24,VWS V14.01,2013-06-03 13:34:00,
2013-06-03 07:39:00,42.8,40.1,29.87,NE,53,0.0,1.0,90,0.00,,---,0.24,VWS V14.01,2013-06-03 13:39:00,
2013-06-03 07:45:00,42.9,39.9,29.87,East,91,0.0,2.0,89,0.00,,---,0.24,VWS V14.01,2013-06-03 13:45:00,
2013-06-03 07:50:00,42.9,39.9,29.86,East,91,0.0,0.0,89,0.00,,---,0.24,VWS V14.01,2013-06-03 13:50:00,
2013-06-03 07:55:00,42.9,40.2,29.86,East,91,0.0,0.0,90,0.00,,---,0.24,VWS V14.01,2013-06-03 13:55:00,
2013-06-03 08:00:00,42.9,39.9,29.86,NNW,336,0.0,2.0,89,0.00,,---,0.24,VWS V14.01,2013-06-03 14:00:00,
2013-06-03 08:05:00,42.9,40.2,29.87,NNW,335,0.0,0.0,90,0.00,,---,0.24,VWS V14.01,2013-06-03 14:05:00,
2013-06-03 08:10:00,43.1,40.4,29.87,NNW,342,0.0,0.0,90,0.00,,---,0.24,VWS V14.01,2013-06-03 14:10:00,
2013-06-03 08:15:00,43.1,40.4,29.87,North,349,0.0,0.0,90,0.00,,---,0.24,VWS V14.01,2013-06-03 14:15:00,
2013-06-03 08:20:00,43.2,40.8,29.88,East,90,1.0,3.0,91,0.00,,---,0.24,VWS V14.01,2013-06-03 14:20:00,
2013-06-03 08:25:00,43.2,40.5,29.88,East,90,0.0,0.0,90,0.00,,---,0.24,VWS V14.01,2013-06-03 14:25:00,
2013-06-03 08:30:00,43.3,40.6,29.88,East,90,0.0,1.0,90,0.00,,---,0.24,VWS V14.01,2013-06-03 14:30:00,
2013-06-03 08:35:00,43.3,40.6,29.88,East,90,0.0,0.0,90,0.00,,---,0.24,VWS V14.01,2013-06-03 14:35:00,
2013-06-03 08:40:00,43.5,40.8,29.88,NNW,332,0.0,2.0,90,0.00,,---,0.24,VWS V14.01,2013-06-03 14:40:00,
2013-06-03 08:45:00,43.8,41.1,29.88,NNW,333,0.0,0.0,90,0.00,,---,0.24,VWS V14.01,2013-06-03 14:45:00,
2013-06-03 08:51:00,44.1,41.4,29.88,West,279,0.0,0.0,90,0.00,,---,0.24,VWS V14.01,2013-06-03 14:51:00,
2013-06-03 08:56:00,44.3,41.3,29.88,WNW,295,1.0,1.0,89,0.00,,---,0.24,VWS V14.01,2013-06-03 14:56:00,
2013-06-03 09:01:00,44.8,40.6,29.87,SSE,161,0.0,5.0,85,0.00,,---,0.24,VWS V14.01,2013-06-03 15:01:00,
2013-06-03 09:06:00,45.2,40.0,29.87,WNW,292,0.0,5.0,82,0.00,,---,0.24,VWS V14.01,2013-06-03 15:06:00,
2013-06-03 09:11:00,45.7,41.2,29.87,North,351,0.0,5.0,84,0.00,,---,0.24,VWS V14.01,2013-06-03 15:11:00,
2013-06-03 09:16:00,46.0,40.5,29.88,NNE,22,0.0,3.0,81,0.00,,---,0.24,VWS V14.01,2013-06-03 15:16:00,
2013-06-03 09:21:00,46.1,40.3,29.88,ENE,57,0.0,3.0,80,0.00,,---,0.24,VWS V14.01,2013-06-03 15:21:00,
2013-06-03 09:26:00,46.1,40.6,29.88,East,88,0.0,5.0,81,0.00,,---,0.24,VWS V14.01,2013-06-03 15:26:00,
2013-06-03 09:32:00,46.4,41.5,29.88,NE,36,3.0,3.0,83,0.00,,---,0.24,VWS V14.01,2013-06-03 15:32:00,
2013-06-03 09:37:00,46.8,40.6,29.88,SSW,205,0.0,5.0,79,0.00,,---,0.24,VWS V14.01,2013-06-03 15:37:00,
2013-06-03 09:42:00,47.4,41.5,29.88,West,275,5.0,10.0,80,0.00,,---,0.24,VWS V14.01,2013-06-03 15:42:00,
2013-06-03 09:48:00,47.7,39.5,29.86,WNW,300,0.0,3.0,73,0.00,,---,0.24,VWS V14.01,2013-06-03 15:48:00,
2013-06-03 09:53:00,48.0,39.4,29.86,East,99,3.0,6.0,72,0.00,,---,0.24,VWS V14.01,2013-06-03 15:53:00,
2013-06-03 09:58:00,48.0,40.8,29.86,NNE,14,1.0,3.0,76,0.00,,---,0.24,VWS V14.01,2013-06-03 15:58:00,
2013-06-03 10:03:00,48.2,39.2,29.87,NNW,328,0.0,4.0,71,0.00,,---,0.24,VWS V14.01,2013-06-03 16:03:00,
2013-06-03 10:08:00,48.2,40.7,29.87,South,190,0.0,0.0,75,0.00,,---,0.24,VWS V14.01,2013-06-03 16:08:00,
2013-06-03 10:13:00,48.3,39.7,29.87,North,355,4.0,6.0,72,0.00,,---,0.24,VWS V14.01,2013-06-03 16:13:00,
2013-06-03 10:18:00,48.3,39.0,29.87,WNW,291,5.0,8.0,70,0.00,,---,0.24,VWS V14.01,2013-06-03 16:18:00,
2013-06-03 10:24:00,48.3,39.7,29.87,NNW,334,2.0,5.0,72,0.00,,---,0.24,VWS V14.01,2013-06-03 16:24:00,
2013-06-03 10:29:00,48.5,40.2,29.87,NE,36,0.0,1.0,73,0.00,,---,0.24,VWS V14.01,2013-06-03 16:29:00,
2013-06-03 10:34:00,48.6,39.3,29.87,NE,51,2.0,3.0,70,0.00,,---,0.24,VWS V14.01,2013-06-03 16:34:00,
2013-06-03 10:39:00,49.1,40.1,29.87,NW,306,1.0,5.0,71,0.00,,---,0.24,VWS V14.01,2013-06-03 16:39:00,
2013-06-03 10:45:00,49.5,39.8,29.87,NW,313,0.0,6.0,69,0.00,,---,0.24,VWS V14.01,2013-06-03 16:45:00,
2013-06-03 10:50:00,49.6,38.7,29.86,WSW,242,0.0,12.0,66,0.00,,---,0.24,VWS V14.01,2013-06-03 16:50:00,
2013-06-03 10:55:00,49.9,38.6,29.86,SW,216,2.0,14.0,65,0.00,,---,0.24,VWS V14.01,2013-06-03 16:55:00,
2013-06-03 11:00:00,50.4,39.5,29.86,NW,312,0.0,12.0,66,0.00,,---,0.24,VWS V14.01,2013-06-03 17:00:00,
2013-06-03 11:05:00,51.0,38.9,29.86,NE,53,9.0,9.0,63,0.00,,---,0.24,VWS V14.01,2013-06-03 17:05:00,
2013-06-03 11:11:00,51.7,39.5,29.86,NNE,21,4.0,12.0,63,0.00,,---,0.24,VWS V14.01,2013-06-03 17:11:00,
2013-06-03 11:16:00,52.5,39.5,29.85,ENE,58,1.0,14.0,61,0.00,,---,0.24,VWS V14.01,2013-06-03 17:16:00,
2013-06-03 11:21:00,53.6,39.6,29.85,East,89,0.0,7.0,59,0.00,,---,0.24,VWS V14.01,2013-06-03 17:21:00,
2013-06-03 11:26:00,54.7,39.8,29.85,South,182,0.0,9.0,57,0.00,,---,0.24,VWS V14.01,2013-06-03 17:26:00,
2013-06-03 11:31:00,55.3,39.9,29.84,ENE,60,1.0,12.0,56,0.00,,---,0.24,VWS V14.01,2013-06-03 17:31:00,
2013-06-03 11:36:00,55.1,39.2,29.84,ENE,78,0.0,10.0,55,0.00,,---,0.24,VWS V14.01,2013-06-03 17:36:00,
2013-06-03 11:41:00,55.3,41.2,29.84,NW,313,5.0,9.0,59,0.00,,---,0.24,VWS V14.01,2013-06-03 17:41:00,
2013-06-03 11:46:00,55.7,40.3,29.84,NE,38,1.0,13.0,56,0.00,,---,0.24,VWS V14.01,2013-06-03 17:46:00,
2013-06-03 11:51:00,56.5,40.1,29.84,WSW,251,4.0,4.0,54,0.00,,---,0.24,VWS V14.01,2013-06-03 17:51:00,
2013-06-03 11:57:00,56.9,40.4,29.84,NW,321,0.0,4.0,54,0.00,,---,0.24,VWS V14.01,2013-06-03 17:57:00,
2013-06-03 12:02:00,56.9,41.8,29.83,NNE,27,5.0,6.0,57,0.00,,---,0.24,VWS V14.01,2013-06-03 18:02:00,
2013-06-03 12:07:00,57.0,38.0,29.83,East,97,0.0,5.0,49,0.00,,---,0.24,VWS V14.01,2013-06-03 18:07:00,
2013-06-03 12:13:00,57.2,41.2,29.83,NW,315,0.0,6.0,55,0.00,,---,0.24,VWS V14.01,2013-06-03 18:13:00,
2013-06-03 12:18:00,57.6,39.6,29.83,North,355,4.0,7.0,51,0.00,,---,0.24,VWS V14.01,2013-06-03 18:18:00,
2013-06-03 12:23:00,57.8,39.8,29.83,NNW,343,2.0,2.0,51,0.00,,---,0.24,VWS V14.01,2013-06-03 18:23:00,
2013-06-03 12:28:00,57.8,37.7,29.83,NW,313,4.0,7.0,47,0.00,,---,0.24,VWS V14.01,2013-06-03 18:28:00,
2013-06-03 12:33:00,57.3,38.3,29.83,NNE,26,5.0,7.0,49,0.00,,---,0.24,VWS V14.01,2013-06-03 18:33:00,
2013-06-03 12:38:00,57.3,39.8,29.83,ESE,106,9.0,10.0,52,0.00,,---,0.24,VWS V14.01,2013-06-03 18:38:00,
2013-06-03 12:43:00,56.6,38.7,29.83,NW,315,10.0,10.0,51,0.00,,---,0.24,VWS V14.01,2013-06-03 18:43:00,
2013-06-03 12:49:00,56.3,40.4,29.83,NNE,17,4.0,6.0,55,0.00,,---,0.24,VWS V14.01,2013-06-03 18:49:00,
2013-06-03 12:54:00,56.3,38.4,29.83,ENE,78,1.0,7.0,51,0.00,,---,0.24,VWS V14.01,2013-06-03 18:54:00,
2013-06-03 12:59:00,56.7,37.8,29.83,North,9,1.0,14.0,49,0.00,,---,0.24,VWS V14.01,2013-06-03 18:59:00,
2013-06-03 13:04:00,56.9,38.5,29.84,NW,311,4.0,10.0,50,0.00,,---,0.24,VWS V14.01,2013-06-03 19:04:00,
2013-06-03 13:09:00,56.5,38.1,29.84,SW,222,0.0,10.0,50,0.00,,---,0.24,VWS V14.01,2013-06-03 19:09:00,
2013-06-03 13:14:00,55.1,42.3,29.84,South,186,1.0,9.0,62,0.00,,---,0.24,VWS V14.01,2013-06-03 19:14:00,
2013-06-03 13:19:00,53.1,42.1,29.87,NW,314,6.0,6.0,66,0.00,,---,0.24,VWS V14.01,2013-06-03 19:19:00,
2013-06-03 13:24:00,50.4,42.1,29.87,SW,219,3.0,6.0,73,0.00,,---,0.24,VWS V14.01,2013-06-03 19:24:00,
2013-06-03 13:29:00,49.1,41.9,29.87,SE,141,0.0,5.0,76,0.00,,---,0.24,VWS V14.01,2013-06-03 19:29:00,
2013-06-03 13:35:00,48.3,41.4,29.92,WSW,244,5.0,9.0,77,0.00,,---,0.24,VWS V14.01,2013-06-03 19:35:00,
2013-06-03 13:40:00,47.6,41.8,29.92,WSW,248,2.0,5.0,80,0.00,,---,0.24,VWS V14.01,2013-06-03 19:40:00,
2013-06-03 13:45:00,47.1,42.2,29.92,North,9,0.0,4.0,83,0.01,,---,0.25,VWS V14.01,2013-06-03 19:45:00,
2013-06-03 13:50:00,46.7,42.1,29.93,WSW,252,2.0,6.0,84,0.01,,---,0.25,VWS V14.01,2013-06-03 19:50:00,
2013-06-03 13:56:00,46.4,41.8,29.93,West,276,0.0,6.0,84,0.01,,---,0.25,VWS V14.01,2013-06-03 19:56:00,
2013-06-03 14:01:00,46.1,42.2,29.95,SW,227,1.0,4.0,86,0.01,,---,0.25,VWS V14.01,2013-06-03 20:01:00,
2013-06-03 14:06:00,46.1,42.5,29.95,West,260,6.0,6.0,87,0.01,,---,0.25,VWS V14.01,2013-06-03 20:06:00,
2013-06-03 14:11:00,45.8,41.5,29.95,South,185,0.0,8.0,85,0.02,,---,0.26,VWS V14.01,2013-06-03 20:11:00,
2013-06-03 14:16:00,45.5,41.9,29.96,West,261,2.0,2.0,87,0.03,,---,0.27,VWS V14.01,2013-06-03 20:16:00,
2013-06-03 14:22:00,45.4,42.1,29.96,WSW,258,0.0,0.0,88,0.04,,---,0.28,VWS V14.01,2013-06-03 20:22:00,
2013-06-03 14:27:00,45.2,41.6,29.96,WSW,246,3.0,3.0,87,0.04,,---,0.28,VWS V14.01,2013-06-03 20:27:00,
2013-06-03 14:32:00,45.1,41.8,29.97,SW,233,2.0,3.0,88,0.04,,---,0.28,VWS V14.01,2013-06-03 20:32:00,
2013-06-03 14:37:00,44.8,41.2,29.97,SSW,204,0.0,0.0,87,0.05,,---,0.29,VWS V14.01,2013-06-03 20:37:00,
2013-06-03 14:43:00,44.5,41.2,29.97,NNE,22,0.0,2.0,88,0.04,,---,0.29,VWS V14.01,2013-06-03 20:43:00,
2013-06-03 14:48:00,44.6,41.6,29.99,WNW,290,1.0,4.0,89,0.04,,---,0.29,VWS V14.01,2013-06-03 20:48:00,
2013-06-03 14:53:00,44.6,41.6,29.99,SW,228,3.0,5.0,89,0.05,,---,0.30,VWS V14.01,2013-06-03 20:53:00,
2013-06-03 14:58:00,44.3,41.3,29.99,SW,229,1.0,2.0,89,0.05,,---,0.30,VWS V14.01,2013-06-03 20:58:00,
2013-06-03 15:03:00,44.5,41.8,29.99,WSW,241,0.0,0.0,90,0.06,,---,0.31,VWS V14.01,2013-06-03 21:03:00,
2013-06-03 15:08:00,44.6,41.8,29.99,WSW,240,0.0,0.0,90,0.06,,---,0.31,VWS V14.01,2013-06-03 21:08:00,
2013-06-03 15:13:00,44.8,42.0,29.99,WSW,241,0.0,0.0,90,0.05,,---,0.31,VWS V14.01,2013-06-03 21:13:00,
2013-06-03 15:18:00,44.8,41.8,29.99,SW,225,0.0,0.0,89,0.04,,---,0.31,VWS V14.01,2013-06-03 21:18:00,
2013-06-03 15:24:00,44.8,41.8,29.99,SW,230,0.0,3.0,89,0.05,,---,0.32,VWS V14.01,2013-06-03 21:24:00,
2013-06-03 15:29:00,44.6,41.6,29.99,West,262,0.0,1.0,89,0.05,,---,0.33,VWS V14.01,2013-06-03 21:29:00,
2013-06-03 15:34:00,44.9,42.4,30.00,WNW,296,0.0,0.0,91,0.06,,---,0.34,VWS V14.01,2013-06-03 21:34:00,
2013-06-03 15:39:00,45.5,43.3,30.00,WNW,296,0.0,0.0,92,0.06,,---,0.34,VWS V14.01,2013-06-03 21:39:00,
2013-06-03 15:44:00,45.5,43.0,30.00,WSW,252,0.0,2.0,91,0.05,,---,0.34,VWS V14.01,2013-06-03 21:44:00,
2013-06-03 15:49:00,45.2,42.2,30.00,WSW,252,0.0,0.0,89,0.05,,---,0.34,VWS V14.01,2013-06-03 21:49:00,
2013-06-03 15:55:00,45.4,42.6,30.00,WSW,252,0.0,0.0,90,0.04,,---,0.34,VWS V14.01,2013-06-03 21:55:00,
2013-06-03 16:00:00,45.5,42.7,30.00,NNW,345,0.0,0.0,90,0.04,,---,0.34,VWS V14.01,2013-06-03 22:00:00,
2013-06-03 16:05:00,45.8,43.3,30.00,NNW,345,0.0,0.0,91,0.03,,---,0.34,VWS V14.01,2013-06-03 22:05:00,
2013-06-03 16:10:00,45.8,42.8,30.00,NNW,345,0.0,0.0,89,0.03,,---,0.34,VWS V14.01,2013-06-03 22:10:00,
2013-06-03 16:15:00,46.0,43.2,30.00,NNW,345,0.0,0.0,90,0.03,,---,0.34,VWS V14.01,2013-06-03 22:15:00,
2013-06-03 16:20:00,46.2,43.7,30.00,NNW,345,0.0,0.0,91,0.03,,---,0.34,VWS V14.01,2013-06-03 22:20:00,
2013-06-03 16:26:00,46.2,43.4,30.00,NNW,345,0.0,0.0,90,0.02,,---,0.34,VWS V14.01,2013-06-03 22:26:00,
2013-06-03 16:31:00,46.2,43.4,30.00,NW,319,0.0,0.0,90,0.01,,---,0.34,VWS V14.01,2013-06-03 22:31:00,
2013-06-03 16:36:00,46.0,42.7,30.00,SW,225,0.0,2.0,88,0.01,,---,0.34,VWS V14.01,2013-06-03 22:36:00,
2013-06-03 16:41:00,45.8,42.8,30.00,SW,225,0.0,0.0,89,0.00,,---,0.34,VWS V14.01,2013-06-03 22:41:00,
2013-06-03 16:46:00,45.7,42.7,30.01,SW,225,1.0,1.0,89,0.00,,---,0.34,VWS V14.01,2013-06-03 22:46:00,
2013-06-03 16:51:00,45.8,43.0,30.01,SW,214,0.0,1.0,90,0.00,,---,0.34,VWS V14.01,2013-06-03 22:51:00,
2013-06-03 16:56:00,45.8,43.0,30.01,SSW,209,0.0,1.0,90,0.00,,---,0.34,VWS V14.01,2013-06-03 22:56:00,
2013-06-03 17:01:00,45.8,42.8,30.02,West,263,0.0,3.0,89,0.00,,---,0.34,VWS V14.01,2013-06-03 23:01:00,
2013-06-03 17:07:00,45.7,42.1,30.02,SW,225,1.0,2.0,87,0.00,,---,0.34,VWS V14.01,2013-06-03 23:07:00,
2013-06-03 17:12:00,45.4,41.5,30.02,WSW,242,0.0,0.0,86,0.00,,---,0.34,VWS V14.01,2013-06-03 23:12:00,
2013-06-03 17:17:00,45.1,41.2,30.04,WSW,254,0.0,0.0,86,0.01,,---,0.35,VWS V14.01,2013-06-03 23:17:00,
2013-06-03 17:22:00,44.8,40.9,30.04,WSW,255,0.0,0.0,86,0.01,,---,0.35,VWS V14.01,2013-06-03 23:22:00,
2013-06-03 17:27:00,44.6,41.0,30.04,SW,235,0.0,0.0,87,0.01,,---,0.35,VWS V14.01,2013-06-03 23:27:00,
2013-06-03 17:32:00,44.5,41.2,30.05,WSW,244,0.0,0.0,88,0.01,,---,0.35,VWS V14.01,2013-06-03 23:32:00,
2013-06-03 17:37:00,44.8,41.5,30.05,WSW,246,0.0,0.0,88,0.01,,---,0.35,VWS V14.01,2013-06-03 23:37:00,
2013-06-03 17:43:00,45.1,41.8,30.05,SW,235,0.0,1.0,88,0.01,,---,0.35,VWS V14.01,2013-06-03 23:43:00,
2013-06-03 17:48:00,45.2,42.2,30.05,SW,235,0.0,0.0,89,0.01,,---,0.35,VWS V14.01,2013-06-03 23:48:00,
2013-06-03 17:53:00,45.4,42.3,30.05,SW,235,0.0,0.0,89,0.01,,---,0.35,VWS V14.01,2013-06-03 23:53:00,
2013-06-03 17:58:00,45.5,42.5,30.05,SW,235,0.0,0.0,89,0.01,,---,0.35,VWS V14.01,2013-06-03 23:58:00,
2013-06-03 18:03:00,45.4,42.1,30.05,NNE,22,0.0,3.0,88,0.01,,---,0.35,VWS V14.01,2013-06-04 00:03:00,
2013-06-03 18:08:00,45.1,41.5,30.05,SSW,211,0.0,0.0,87,0.01,,---,0.35,VWS V14.01,2013-06-04 00:08:00,
2013-06-03 18:14:00,45.1,41.8,30.05,NNE,13,0.0,2.0,88,0.01,,---,0.35,VWS V14.01,2013-06-04 00:14:00,
2013-06-03 18:19:00,44.9,41.0,30.06,WNW,292,0.0,1.0,86,0.00,,---,0.35,VWS V14.01,2013-06-04 00:19:00,
2013-06-03 18:24:00,44.6,40.7,30.06,West,275,0.0,0.0,86,0.00,,---,0.35,VWS V14.01,2013-06-04 00:24:00,
2013-06-03 18:29:00,44.8,41.5,30.06,North,5,0.0,0.0,88,0.00,,---,0.35,VWS V14.01,2013-06-04 00:29:00,
2013-06-03 18:34:00,44.8,41.2,30.07,WNW,296,3.0,3.0,87,0.00,,---,0.35,VWS V14.01,2013-06-04 00:34:00,
2013-06-03 18:39:00,44.8,41.2,30.07,West,271,0.0,0.0,87,0.00,,---,0.35,VWS V14.01,2013-06-04 00:39:00,
2013-06-03 18:44:00,44.8,41.5,30.07,West,271,0.0,1.0,88,0.01,,---,0.36,VWS V14.01,2013-06-04 00:44:00,
2013-06-03 18:50:00,44.5,40.9,30.07,West,267,2.0,4.0,87,0.01,,---,0.36,VWS V14.01,2013-06-04 00:50:00,
2013-06-03 18:55:00,44.3,40.7,30.07,SW,223,0.0,3.0,87,0.01,,---,0.36,VWS V14.01,2013-06-04 00:55:00,
2013-06-03 19:00:00,44.3,41.3,30.07,WSW,257,4.0,4.0,89,0.01,,---,0.36,VWS V14.01,2013-06-04 01:00:00,
2013-06-03 19:05:00,44.1,40.8,30.07,SW,232,0.0,1.0,88,0.01,,---,0.36,VWS V14.01,2013-06-04 01:05:00,
2013-06-03 19:10:00,44.1,41.1,30.07,North,11,0.0,0.0,89,0.01,,---,0.36,VWS V14.01,2013-06-04 01:10:00,
2013-06-03 19:15:00,43.9,40.9,30.08,NNE,19,0.0,0.0,89,0.01,,---,0.36,VWS V14.01,2013-06-04 01:15:00,
2013-06-03 19:21:00,43.8,40.5,30.08,North,9,0.0,1.0,88,0.01,,---,0.36,VWS V14.01,2013-06-04 01:21:00,
2013-06-03 19:26:00,43.6,40.3,30.08,NW,306,0.0,2.0,88,0.01,,---,0.36,VWS V14.01,2013-06-04 01:26:00,
2013-06-03 19:31:00,43.5,40.2,30.09,NE,35,0.0,2.0,88,0.02,,---,0.37,VWS V14.01,2013-06-04 01:31:00,
2013-06-03 19:36:00,43.5,40.5,30.09,WSW,240,0.0,2.0,89,0.02,,---,0.37,VWS V14.01,2013-06-04 01:36:00,
2013-06-03 19:41:00,43.3,40.3,30.09,SW,234,1.0,1.0,89,0.03,,---,0.38,VWS V14.01,2013-06-04 01:41:00,
2013-06-03 19:46:00,43.2,40.2,30.10,SW,234,0.0,0.0,89,0.03,,---,0.39,VWS V14.01,2013-06-04 01:46:00,
2013-06-03 19:51:00,43.2,40.2,30.10,SW,234,0.0,0.0,89,0.03,,---,0.39,VWS V14.01,2013-06-04 01:51:00,
2013-06-03 19:56:00,43.1,40.4,30.10,NNE,20,0.0,2.0,90,0.04,,---,0.40,VWS V14.01,2013-06-04 01:56:00,
2013-06-03 20:02:00,43.1,40.4,30.10,WNW,286,0.0,0.0,90,0.04,,---,0.40,VWS V14.01,2013-06-04 02:02:00,
2013-06-03 20:07:00,42.9,40.2,30.10,WSW,250,0.0,0.0,90,0.04,,---,0.40,VWS V14.01,2013-06-04 02:07:00,
2013-06-03 20:12:00,42.9,40.2,30.10,WSW,250,0.0,0.0,90,0.04,,---,0.40,VWS V14.01,2013-06-04 02:12:00,
2013-06-03 20:17:00,43.1,40.4,30.10,WSW,250,0.0,1.0,90,0.04,,---,0.40,VWS V14.01,2013-06-04 02:17:00,
2013-06-03 20:22:00,43.1,40.4,30.10,WSW,250,0.0,0.0,90,0.04,,---,0.40,VWS V14.01,2013-06-04 02:22:00,
2013-06-03 20:27:00,43.1,40.7,30.10,WSW,250,0.0,0.0,91,0.04,,---,0.40,VWS V14.01,2013-06-04 02:27:00,
2013-06-03 20:33:00,43.1,40.4,30.10,WSW,250,0.0,0.0,90,0.03,,---,0.40,VWS V14.01,2013-06-04 02:33:00,
2013-06-03 20:38:00,42.9,40.2,30.10,West,268,0.0,0.0,90,0.02,,---,0.40,VWS V14.01,2013-06-04 02:38:00,
2013-06-03 20:43:00,42.8,40.1,30.10,West,268,0.0,0.0,90,0.02,,---,0.40,VWS V14.01,2013-06-04 02:43:00,
2013-06-03 20:48:00,42.8,40.1,30.11,West,267,0.0,0.0,90,0.01,,---,0.40,VWS V14.01,2013-06-04 02:48:00,
2013-06-03 20:53:00,42.6,39.9,30.11,ESE,109,0.0,0.0,90,0.01,,---,0.40,VWS V14.01,2013-06-04 02:53:00,
2013-06-03 20:58:00,42.3,39.6,30.11,ESE,109,0.0,0.0,90,0.00,,---,0.40,VWS V14.01,2013-06-04 02:58:00,
2013-06-03 21:03:00,42.1,39.1,30.12,ESE,109,0.0,0.0,89,0.01,,---,0.41,VWS V14.01,2013-06-04 03:03:00,
2013-06-03 21:08:00,41.9,38.9,30.12,ESE,109,0.0,0.0,89,0.01,,---,0.41,VWS V14.01,2013-06-04 03:08:00,
2013-06-03 21:14:00,41.8,39.1,30.12,ESE,109,0.0,0.0,90,0.01,,---,0.41,VWS V14.01,2013-06-04 03:14:00,
2013-06-03 21:19:00,41.6,38.9,30.10,NE,56,0.0,2.0,90,0.01,,---,0.41,VWS V14.01,2013-06-04 03:19:00,
2013-06-03 21:24:00,41.6,38.9,30.10,NE,56,0.0,0.0,90,0.01,,---,0.41,VWS V14.01,2013-06-04 03:24:00,
2013-06-03 21:29:00,41.6,38.9,30.10,ENE,65,0.0,0.0,90,0.01,,---,0.41,VWS V14.01,2013-06-04 03:29:00,
2013-06-03 21:34:00,41.5,38.8,30.10,ENE,65,0.0,0.0,90,0.01,,---,0.41,VWS V14.01,2013-06-04 03:34:00,
2013-06-03 21:39:00,41.5,38.8,30.10,East,79,0.0,0.0,90,0.01,,---,0.41,VWS V14.01,2013-06-04 03:39:00,
2013-06-03 21:44:00,41.3,38.6,30.10,East,79,0.0,0.0,90,0.01,,---,0.41,VWS V14.01,2013-06-04 03:44:00,
2013-06-03 21:49:00,41.3,38.6,30.11,East,79,0.0,0.0,90,0.01,,---,0.41,VWS V14.01,2013-06-04 03:49:00,
2013-06-03 21:54:00,41.2,38.5,30.11,East,79,0.0,0.0,90,0.01,,---,0.41,VWS V14.01,2013-06-04 03:54:00,
2013-06-03 22:00:00,41.2,38.8,30.11,ENE,67,0.0,0.0,91,0.01,,---,0.41,VWS V14.01,2013-06-04 04:00:00,
2013-06-03 22:01:00,41.2,38.8,30.11,ENE,67,0.0,0.0,91,0.01,,---,0.41,VWS V14.01,2013-06-04 04:01:00,
2013-06-03 22:02:00,41.2,38.8,30.11,ENE,67,0.0,0.0,91,0.01,,---,0.41,VWS V14.01,2013-06-04 04:02:00,
2013-06-03 22:03:00,41.2,38.8,30.11,ENE,67,0.0,0.0,91,0.01,,---,0.41,VWS V14.01,2013-06-04 04:03:00,
2013-06-03 22:04:00,41.2,38.8,30.11,ENE,67,0.0,0.0,91,0.01,,---,0.41,VWS V14.01,2013-06-04 04:04:00,
2013-06-03 22:09:00,41.2,38.8,30.11,ENE,67,0.0,0.0,91,0.00,,---,0.41,VWS V14.01,2013-06-04 04:09:00,
2013-06-03 22:14:00,41.1,38.7,30.11,ENE,67,0.0,0.0,91,0.00,,---,0.41,VWS V14.01,2013-06-04 04:14:00,
2013-06-03 22:19:00,41.1,38.7,30.10,ENE,78,0.0,1.0,91,0.00,,---,0.41,VWS V14.01,2013-06-04 04:19:00,
2013-06-03 22:24:00,41.1,38.7,30.10,ENE,69,0.0,0.0,91,0.00,,---,0.41,VWS V14.01,2013-06-04 04:24:00,
2013-06-03 22:29:00,41.1,38.7,30.10,NE,53,0.0,0.0,91,0.00,,---,0.41,VWS V14.01,2013-06-04 04:29:00,
2013-06-03 22:34:00,41.1,38.7,30.11,ENE,73,0.0,2.0,91,0.00,,---,0.41,VWS V14.01,2013-06-04 04:34:00,
2013-06-03 22:40:00,41.1,38.7,30.11,ENE,73,0.0,0.0,91,0.00,,---,0.41,VWS V14.01,2013-06-04 04:40:00,
2013-06-03 22:45:00,41.2,38.8,30.11,ENE,73,0.0,0.0,91,0.00,,---,0.41,VWS V14.01,2013-06-04 04:45:00,
2013-06-03 22:50:00,41.2,38.8,30.11,NE,38,0.0,0.0,91,0.00,,---,0.41,VWS V14.01,2013-06-04 04:50:00,
2013-06-03 22:55:00,41.2,38.8,30.11,NE,38,0.0,0.0,91,0.00,,---,0.41,VWS V14.01,2013-06-04 04:55:00,
2013-06-03 23:00:00,41.2,38.8,30.11,NE,38,0.0,0.0,91,0.00,,---,0.41,VWS V14.01,2013-06-04 05:00:00,
2013-06-03 23:05:00,41.2,38.8,30.11,NE,38,0.0,0.0,91,0.00,,---,0.41,VWS V14.01,2013-06-04 05:05:00,
2013-06-03 23:10:00,41.3,39.2,30.11,NE,38,0.0,0.0,92,0.00,,---,0.41,VWS V14.01,2013-06-04 05:10:00,
2013-06-03 23:15:00,41.3,39.2,30.11,NE,38,0.0,0.0,92,0.00,,---,0.41,VWS V14.01,2013-06-04 05:15:00,
2013-06-03 23:21:00,41.3,39.2,30.08,NE,38,0.0,0.0,92,0.00,,---,0.41,VWS V14.01,2013-06-04 05:21:00,
2013-06-03 23:26:00,41.3,38.9,30.08,North,355,0.0,0.0,91,0.00,,---,0.41,VWS V14.01,2013-06-04 05:26:00,
2013-06-03 23:32:00,41.2,38.8,30.08,East,82,0.0,0.0,91,0.00,,---,0.41,VWS V14.01,2013-06-04 05:32:00,
2013-06-03 23:37:00,41.2,38.8,30.08,East,82,0.0,0.0,91,0.00,,---,0.41,VWS V14.01,2013-06-04 05:37:00,
2013-06-03 23:42:00,41.2,38.8,30.08,East,82,0.0,0.0,91,0.00,,---,0.41,VWS V14.01,2013-06-04 05:42:00,
2013-06-03 23:47:00,41.3,39.2,30.08,East,82,0.0,0.0,92,0.00,,---,0.41,VWS V14.01,2013-06-04 05:47:00,
2013-06-03 23:52:00,41.2,38.8,30.08,WSW,252,0.0,0.0,91,0.00,,---,0.41,VWS V14.01,2013-06-04 05:52:00,
2013-06-03 23:57:00,41.2,38.8,30.08,WSW,252,0.0,0.0,91,0.00,,---,0.41,VWS V14.01,2013-06-04 05:57:00,